Time;durP1;ratioP1;P1;durP2;ratioP2;P2;SDS_P1;SDS_P2;PMS_P1;PMS_P2;Temp;Humidity;BMP_temperature;BMP_pressure;BME280_temperature;BME280_humidity;BME280_pressure;Samples;Min_cycle;Max_cycle;Signal;HPM_P1;HPM_P2
2021/09/02 00:01:25;;;;;;;11.07;7.30;;;11.50;99.90;;;;;;4978526;28;20639;-80
2021/09/02 00:03:51;;;;;;;10.10;7.00;;;11.40;99.90;;;;;;4995039;28;20184;-80
2021/09/02 00:06:16;;;;;;;11.23;7.50;;;11.40;99.90;;;;;;5011158;28;20179;-80
2021/09/02 00:08:42;;;;;;;11.63;7.50;;;11.40;99.90;;;;;;4978256;28;20223;-80
2021/09/02 00:11:08;;;;;;;10.00;7.20;;;11.40;99.90;;;;;;4978672;28;20187;-80
2021/09/02 00:13:34;;;;;;;8.53;6.67;;;11.40;99.90;;;;;;4978312;28;20187;-81
2021/09/02 00:16:01;;;;;;;11.20;6.23;;;11.30;99.90;;;;;;4978126;28;20591;-80
2021/09/02 00:18:28;;;;;;;11.57;7.30;;;11.30;99.90;;;;;;4994941;28;20195;-80
2021/09/02 00:20:53;;;;;;;11.83;7.80;;;11.30;99.90;;;;;;4978474;28;20238;-79
2021/09/02 00:23:19;;;;;;;9.70;6.77;;;11.30;99.90;;;;;;4994758;28;20176;-80
2021/09/02 00:25:44;;;;;;;10.53;7.17;;;11.30;99.90;;;;;;4978283;28;20197;-80
2021/09/02 00:28:10;;;;;;;9.80;6.93;;;11.30;99.90;;;;;;4978308;28;20615;-80
2021/09/02 00:30:36;;;;;;;9.43;7.13;;;11.30;99.90;;;;;;4979647;28;20599;-81
2021/09/02 00:33:02;;;;;;;8.33;6.60;;;11.30;99.90;;;;;;4988867;28;20187;-81
2021/09/02 00:35:27;;;;;;;8.73;6.63;;;11.30;99.90;;;;;;4987471;28;20214;-81
2021/09/02 00:37:53;;;;;;;10.03;6.70;;;11.40;99.90;;;;;;4987310;28;20180;-81
2021/09/02 00:40:19;;;;;;;10.40;6.97;;;11.30;99.90;;;;;;5002691;28;20230;-82
2021/09/02 00:42:44;;;;;;;10.07;6.90;;;11.30;99.90;;;;;;5004529;28;20183;-81
2021/09/02 00:45:10;;;;;;;10.40;7.10;;;11.20;99.90;;;;;;5004129;28;20526;-81
2021/09/02 00:47:36;;;;;;;9.60;6.87;;;11.20;99.90;;;;;;4987816;28;20250;-81
2021/09/02 00:50:02;;;;;;;10.73;7.20;;;11.20;99.90;;;;;;4991112;28;20203;-81
2021/09/02 00:52:29;;;;;;;8.83;6.60;;;11.10;99.90;;;;;;5024670;28;20189;-81
2021/09/02 00:54:56;;;;;;;9.40;7.30;;;11.20;99.90;;;;;;5024169;28;20206;-81
2021/09/02 00:57:26;;;;;;;9.70;6.67;;;11.00;99.90;;;;;;5008904;28;20180;-81
2021/09/02 00:59:53;;;;;;;12.70;6.77;;;11.00;99.90;;;;;;5026179;28;20250;-81
2021/09/02 01:02:20;;;;;;;10.40;6.80;;;11.10;99.90;;;;;;5026997;28;20709;-81
2021/09/02 01:04:45;;;;;;;9.53;6.50;;;11.10;99.90;;;;;;5026468;28;20621;-82
2021/09/02 01:07:11;;;;;;;9.67;6.70;;;11.10;99.90;;;;;;5007586;28;20176;-81
2021/09/02 01:09:37;;;;;;;11.07;6.90;;;11.10;99.90;;;;;;5022299;28;20227;-81
2021/09/02 01:12:28;;;;;;;10.47;7.20;;;11.10;99.90;;;;;;5007664;28;20180;-81
2021/09/02 01:14:54;;;;;;;11.00;7.03;;;11.00;99.90;;;;;;5023558;28;20698;-81
2021/09/02 01:17:21;;;;;;;10.67;7.10;;;11.10;99.90;;;;;;4991554;28;20207;-81
2021/09/02 01:19:47;;;;;;;9.13;6.63;;;11.00;99.90;;;;;;5021579;28;20200;-81
2021/09/02 01:22:13;;;;;;;8.57;6.20;;;11.00;99.90;;;;;;5020922;28;20229;-81
2021/09/02 01:24:39;;;;;;;10.40;7.20;;;11.00;99.90;;;;;;4982897;28;20191;-80
2021/09/02 01:27:04;;;;;;;11.00;7.30;;;11.00;99.90;;;;;;5013787;28;20263;-80
2021/09/02 01:29:30;;;;;;;8.83;6.70;;;11.00;99.90;;;;;;4997176;28;20238;-80
2021/09/02 01:31:55;;;;;;;9.73;6.70;;;11.00;99.90;;;;;;5015048;28;20183;-79
2021/09/02 01:34:21;;;;;;;9.73;7.00;;;11.00;99.90;;;;;;4981196;28;20190;-80
2021/09/02 01:36:47;;;;;;;9.17;6.80;;;10.90;99.90;;;;;;4997311;28;20206;-79
2021/09/02 01:39:19;;;;;;;8.10;6.60;;;10.80;99.90;;;;;;4980909;28;20254;-80
2021/09/02 01:41:45;;;;;;;10.17;6.70;;;10.80;99.90;;;;;;4980881;28;20236;-80
2021/09/02 01:44:10;;;;;;;9.37;6.53;;;10.80;99.90;;;;;;4981328;28;20179;-80
2021/09/02 01:46:36;;;;;;;9.40;6.47;;;10.80;99.90;;;;;;4981015;28;20179;-80
2021/09/02 01:49:01;;;;;;;9.00;6.50;;;10.70;99.90;;;;;;4980724;28;20568;-80
2021/09/02 01:51:27;;;;;;;8.20;6.60;;;10.70;99.90;;;;;;4980912;28;20569;-79
2021/09/02 01:53:53;;;;;;;9.20;6.97;;;10.70;99.90;;;;;;4980852;28;20532;-79
2021/09/02 01:56:18;;;;;;;8.37;6.23;;;10.70;99.90;;;;;;4996798;28;20241;-79
2021/09/02 01:58:44;;;;;;;9.73;6.70;;;10.70;99.90;;;;;;4980552;28;20214;-79
2021/09/02 02:01:10;;;;;;;9.17;6.27;;;10.70;99.90;;;;;;4995888;28;20218;-80
2021/09/02 02:03:35;;;;;;;9.27;6.60;;;10.70;99.90;;;;;;4996603;28;20187;-79
2021/09/02 02:06:01;;;;;;;8.83;6.60;;;10.70;99.90;;;;;;4980700;28;20183;-80
2021/09/02 02:08:27;;;;;;;9.13;6.57;;;10.60;99.90;;;;;;4996026;28;20749;-79
2021/09/02 02:10:52;;;;;;;11.13;7.37;;;10.60;99.90;;;;;;5013348;28;20643;-79
2021/09/02 02:13:18;;;;;;;10.93;7.40;;;10.60;99.90;;;;;;4996511;28;20639;-79
2021/09/02 02:15:43;;;;;;;9.47;6.50;;;10.60;99.90;;;;;;4980214;28;20297;-80
2021/09/02 02:18:09;;;;;;;10.03;6.70;;;10.70;99.90;;;;;;4980673;28;20206;-80
2021/09/02 02:20:35;;;;;;;12.10;7.13;;;10.60;99.90;;;;;;4980178;28;20180;-80
2021/09/02 02:23:00;;;;;;;9.67;7.03;;;10.60;99.90;;;;;;4980418;28;20183;-79
2021/09/02 02:25:26;;;;;;;8.80;6.43;;;10.60;99.90;;;;;;4996811;28;20183;-80
2021/09/02 02:27:51;;;;;;;9.63;6.87;;;10.60;99.90;;;;;;4980434;28;20183;-80
2021/09/02 02:30:18;;;;;;;11.17;7.37;;;10.60;99.90;;;;;;4996551;28;20206;-80
2021/09/02 02:32:43;;;;;;;10.43;6.87;;;10.60;99.90;;;;;;4996542;28;20329;-80
2021/09/02 02:35:09;;;;;;;13.53;7.57;;;10.70;99.90;;;;;;5012539;28;20721;-80
2021/09/02 02:37:35;;;;;;;11.67;7.47;;;10.60;99.90;;;;;;4996423;28;20183;-80
2021/09/02 02:40:01;;;;;;;10.20;7.00;;;10.60;99.90;;;;;;4979887;28;20203;-80
2021/09/02 02:42:26;;;;;;;12.13;7.50;;;10.60;99.90;;;;;;4996505;28;20180;-79
2021/09/02 02:44:52;;;;;;;8.47;6.40;;;10.60;99.90;;;;;;4980222;28;20241;-80
2021/09/02 02:47:17;;;;;;;9.70;7.20;;;10.50;99.90;;;;;;4996424;28;20187;-79
2021/09/02 02:49:43;;;;;;;10.90;6.90;;;10.50;99.90;;;;;;4995938;28;20751;-79
2021/09/02 02:52:09;;;;;;;11.53;7.23;;;10.40;99.90;;;;;;4979744;28;20182;-79
2021/09/02 02:54:35;;;;;;;8.93;6.63;;;10.40;99.90;;;;;;4979655;28;20585;-79
2021/09/02 02:57:00;;;;;;;10.47;6.77;;;10.40;99.90;;;;;;4979678;28;20171;-79
2021/09/02 02:59:26;;;;;;;9.97;7.07;;;10.40;99.90;;;;;;4979283;28;20690;-79
2021/09/02 03:01:52;;;;;;;10.77;6.50;;;10.40;99.90;;;;;;4979700;28;20553;-79
2021/09/02 03:04:17;;;;;;;9.30;6.90;;;10.30;99.90;;;;;;4979618;28;20616;-78
2021/09/02 03:06:43;;;;;;;10.27;6.73;;;10.30;99.90;;;;;;5012022;28;20644;-79
2021/09/02 03:09:08;;;;;;;10.00;7.20;;;10.40;99.90;;;;;;4995421;28;20686;-79
2021/09/02 03:11:34;;;;;;;9.97;6.63;;;10.30;99.90;;;;;;4995353;28;20174;-79
2021/09/02 03:14:00;;;;;;;8.87;6.57;;;10.30;99.90;;;;;;4995884;28;20220;-79
2021/09/02 03:16:25;;;;;;;10.23;6.73;;;10.30;99.90;;;;;;4979839;28;20209;-79
2021/09/02 03:18:51;;;;;;;9.90;6.67;;;10.30;99.90;;;;;;4980158;28;20207;-79
2021/09/02 03:21:17;;;;;;;11.13;6.87;;;10.30;99.90;;;;;;4979411;28;20318;-79
2021/09/02 03:23:42;;;;;;;10.10;7.00;;;10.30;99.90;;;;;;4995751;28;20211;-79
2021/09/02 03:26:08;;;;;;;11.63;7.17;;;10.30;99.90;;;;;;4979477;28;20660;-80
2021/09/02 03:28:33;;;;;;;11.03;7.63;;;10.30;99.90;;;;;;4979658;28;20601;-79
2021/09/02 03:30:59;;;;;;;10.23;7.60;;;10.30;99.90;;;;;;4979037;28;20556;-79
2021/09/02 03:33:25;;;;;;;10.50;7.00;;;10.30;99.90;;;;;;4995445;28;20233;-79
2021/09/02 03:35:50;;;;;;;10.57;6.90;;;10.20;99.90;;;;;;4995282;28;20205;-79
2021/09/02 03:38:16;;;;;;;11.47;7.03;;;10.20;99.90;;;;;;4979238;28;20178;-78
2021/09/02 03:40:41;;;;;;;11.53;7.80;;;10.20;99.90;;;;;;4995218;28;20175;-79
2021/09/02 03:43:07;;;;;;;11.10;7.10;;;10.20;99.90;;;;;;4979250;28;20174;-79
2021/09/02 03:45:32;;;;;;;10.47;7.20;;;10.20;99.90;;;;;;4995292;28;20646;-79
2021/09/02 03:47:58;;;;;;;9.17;7.10;;;10.20;99.90;;;;;;4979034;28;20606;-79
2021/09/02 03:50:24;;;;;;;10.23;7.63;;;10.10;99.90;;;;;;4979002;28;20299;-79
2021/09/02 03:52:49;;;;;;;9.23;6.67;;;10.10;99.90;;;;;;4979106;28;20183;-79
2021/09/02 03:55:15;;;;;;;10.37;7.00;;;10.10;99.90;;;;;;5009652;28;20206;-79
2021/09/02 03:57:41;;;;;;;10.97;7.50;;;10.00;99.90;;;;;;4960142;28;20195;-79
2021/09/02 04:00:08;;;;;;;10.80;7.07;;;10.00;99.90;;;;;;4973227;28;20560;-79
2021/09/02 04:02:34;;;;;;;10.30;7.70;;;10.00;99.90;;;;;;4992402;28;20178;-79
2021/09/02 04:05:00;;;;;;;11.07;6.83;;;10.00;99.90;;;;;;4966338;28;20196;-79
2021/09/02 04:07:25;;;;;;;10.17;7.30;;;10.10;99.90;;;;;;4972592;28;20187;-79
2021/09/02 04:09:53;;;;;;;12.23;7.70;;;10.00;99.90;;;;;;4972178;28;20219;-79
2021/09/02 04:12:19;;;;;;;10.30;7.03;;;10.10;99.90;;;;;;4972555;28;20174;-79
2021/09/02 04:14:44;;;;;;;10.07;6.53;;;10.00;99.90;;;;;;4972455;28;20286;-80
2021/09/02 04:17:10;;;;;;;11.77;7.73;;;10.00;99.90;;;;;;4972089;28;20262;-79
2021/09/02 04:19:35;;;;;;;9.00;6.90;;;10.00;99.90;;;;;;4972489;28;20605;-79
2021/09/02 04:22:01;;;;;;;11.33;6.83;;;10.00;99.90;;;;;;4972509;28;20164;-79
2021/09/02 04:24:26;;;;;;;10.33;7.20;;;10.00;99.90;;;;;;4974423;28;20180;-79
2021/09/02 04:26:53;;;;;;;9.43;6.57;;;10.00;99.90;;;;;;4982515;28;20190;-79
2021/09/02 04:29:27;;;;;;;9.40;7.00;;;10.00;99.90;;;;;;5013750;23;20263;-80
2021/09/02 04:37:26;;;;;;;10.90;7.33;;;9.90;99.90;;;;;;5014858;28;20230;-86
2021/09/02 04:39:52;;;;;;;13.60;7.37;;;9.90;99.90;;;;;;5014772;28;20197;-86
2021/09/02 04:42:17;;;;;;;11.63;7.97;;;9.90;99.90;;;;;;4998718;28;20185;-86
2021/09/02 04:44:43;;;;;;;10.80;8.10;;;9.80;99.90;;;;;;4998486;28;20178;-86
2021/09/02 04:47:09;;;;;;;14.90;8.57;;;9.80;99.90;;;;;;5014854;28;20196;-81
2021/09/02 04:49:34;;;;;;;13.27;8.63;;;9.80;99.90;;;;;;4998669;28;20237;-88
2021/09/02 04:52:00;;;;;;;13.50;8.57;;;9.80;99.90;;;;;;4997855;28;20174;-88
2021/09/02 04:54:25;;;;;;;14.33;9.03;;;9.80;99.90;;;;;;5014260;28;20186;-85
2021/09/02 04:56:51;;;;;;;13.20;8.63;;;9.90;99.90;;;;;;5014309;28;20178;-85
2021/09/02 04:59:16;;;;;;;13.40;9.00;;;9.90;99.90;;;;;;4997321;28;20556;-87
2021/09/02 05:01:42;;;;;;;14.17;9.27;;;9.90;99.90;;;;;;5014112;28;20183;-87
2021/09/02 05:04:07;;;;;;;18.53;9.73;;;9.90;99.90;;;;;;4990501;28;20225;-88
2021/09/02 05:06:33;;;;;;;16.47;8.90;;;10.00;99.90;;;;;;4996553;28;20296;-87
2021/09/02 05:08:58;;;;;;;14.60;8.93;;;10.00;99.90;;;;;;5013294;28;20229;-87
2021/09/02 05:11:24;;;;;;;16.47;9.17;;;10.00;99.90;;;;;;5012782;28;20187;-86
2021/09/02 05:13:50;;;;;;;13.67;9.27;;;10.00;99.90;;;;;;4996865;28;20249;-87
2021/09/02 05:16:15;;;;;;;14.07;9.03;;;10.10;99.90;;;;;;4997390;28;20691;-86
2021/09/02 05:18:41;;;;;;;15.57;10.03;;;10.10;99.90;;;;;;4997221;28;20211;-86
2021/09/02 05:21:06;;;;;;;16.83;10.10;;;10.10;99.90;;;;;;5013939;28;20187;-90
2021/09/02 05:23:32;;;;;;;16.97;10.37;;;10.20;99.90;;;;;;4997792;28;20582;-87
2021/09/02 05:25:57;;;;;;;15.27;10.20;;;10.20;99.90;;;;;;4981271;28;20273;-88
2021/09/02 05:28:23;;;;;;;18.37;10.43;;;10.20;99.90;;;;;;4981699;28;20218;-89
2021/09/02 05:30:48;;;;;;;18.53;10.30;;;10.30;99.90;;;;;;4981102;28;20273;-88
2021/09/02 05:33:14;;;;;;;16.00;10.17;;;10.30;99.90;;;;;;4982635;28;20649;-86
2021/09/02 05:35:39;;;;;;;15.03;10.30;;;10.40;99.90;;;;;;4981510;28;20246;-86
2021/09/02 05:38:11;;;;;;;16.07;11.07;;;10.50;99.90;;;;;;4966086;28;20211;-86
2021/09/02 05:40:37;;;;;;;18.63;10.50;;;10.60;99.90;;;;;;4978127;28;20183;-86
2021/09/02 05:43:02;;;;;;;16.73;9.63;;;10.70;99.90;;;;;;4962453;28;20551;-84
2021/09/02 05:45:28;;;;;;;17.70;10.40;;;10.70;99.90;;;;;;4978090;28;20184;-87
2021/09/02 05:47:53;;;;;;;16.17;10.87;;;10.80;99.90;;;;;;4962719;28;20301;-87
2021/09/02 05:50:19;;;;;;;17.03;10.97;;;10.90;99.90;;;;;;4961427;28;20205;-84
2021/09/02 05:52:44;;;;;;;18.03;11.33;;;11.00;99.90;;;;;;4961728;28;20279;-86
2021/09/02 05:55:10;;;;;;;14.50;9.87;;;11.10;99.90;;;;;;4961739;28;20200;-87
2021/09/02 05:57:39;;;;;;;17.00;10.33;;;11.20;99.90;;;;;;4980093;28;20200;-87
2021/09/02 06:00:05;;;;;;;15.83;10.67;;;11.40;99.90;;;;;;4962056;28;20180;-87
2021/09/02 06:02:31;;;;;;;17.87;10.43;;;11.60;99.90;;;;;;4978278;28;20188;-86
2021/09/02 06:04:56;;;;;;;16.33;10.27;;;11.70;99.90;;;;;;4962249;28;20184;-85
2021/09/02 06:07:22;;;;;;;14.23;10.07;;;11.80;99.90;;;;;;4962313;28;20215;-86
2021/09/02 06:09:47;;;;;;;15.93;10.07;;;11.90;99.90;;;;;;4961564;28;20262;-86
2021/09/02 06:12:13;;;;;;;14.33;9.53;;;12.00;99.90;;;;;;4962358;28;20191;-86
2021/09/02 06:14:38;;;;;;;14.63;9.37;;;12.00;99.90;;;;;;4984770;28;20214;-86
2021/09/02 06:17:04;;;;;;;15.13;9.57;;;12.00;99.90;;;;;;4989281;28;20204;-86
2021/09/02 06:19:30;;;;;;;15.97;10.33;;;12.00;99.90;;;;;;4997179;28;20175;-86
2021/09/02 06:21:55;;;;;;;20.43;13.27;;;12.10;99.90;;;;;;4978128;28;20310;-86
2021/09/02 06:24:21;;;;;;;21.30;12.30;;;12.10;99.90;;;;;;4980909;28;20182;-86
2021/09/02 06:26:46;;;;;;;17.23;11.37;;;12.20;99.90;;;;;;4980657;28;20749;-86
2021/09/02 06:29:12;;;;;;;15.73;10.87;;;12.30;99.90;;;;;;4996290;28;20171;-85
2021/09/02 06:31:37;;;;;;;17.80;11.23;;;12.30;99.90;;;;;;4980837;28;20183;-86
2021/09/02 06:34:03;;;;;;;21.77;12.00;;;12.40;99.90;;;;;;4981327;28;20183;-84
2021/09/02 06:36:28;;;;;;;18.43;10.70;;;12.50;99.90;;;;;;4980328;28;20215;-85
2021/09/02 06:38:54;;;;;;;19.80;10.57;;;12.50;99.90;;;;;;4980498;28;20200;-85
2021/09/02 06:41:20;;;;;;;22.10;11.53;;;12.60;99.90;;;;;;4981584;28;20179;-85
2021/09/02 06:43:45;;;;;;;20.47;12.03;;;12.60;99.90;;;;;;4998134;28;20646;-85
2021/09/02 06:46:11;;;;;;;17.67;11.67;;;12.70;99.90;;;;;;4980580;28;20677;-85
2021/09/02 06:48:36;;;;;;;14.50;10.90;;;12.80;99.90;;;;;;4979554;28;20611;-85
2021/09/02 06:51:02;;;;;;;18.93;10.90;;;12.90;99.90;;;;;;4997644;28;20179;-85
2021/09/02 06:53:27;;;;;;;18.33;11.87;;;12.90;99.90;;;;;;4981404;28;20230;-85
2021/09/02 06:55:53;;;;;;;17.83;11.27;;;13.00;99.90;;;;;;4981410;28;20211;-85
2021/09/02 06:58:18;;;;;;;19.57;12.27;;;13.00;99.90;;;;;;4980736;28;20191;-85
2021/09/02 07:00:44;;;;;;;16.90;10.70;;;13.10;99.90;;;;;;4981463;28;20172;-85
2021/09/02 07:03:09;;;;;;;16.27;10.80;;;13.20;99.90;;;;;;4981385;28;20176;-85
2021/09/02 07:05:35;;;;;;;17.40;11.17;;;13.20;99.90;;;;;;4980715;28;20241;-85
2021/09/02 07:08:01;;;;;;;17.50;10.83;;;13.30;99.90;;;;;;4980866;28;20195;-85
2021/09/02 07:10:26;;;;;;;17.43;11.23;;;13.50;99.90;;;;;;4980568;28;20660;-85
2021/09/02 07:12:52;;;;;;;19.57;10.90;;;13.60;99.90;;;;;;4997500;28;20184;-85
2021/09/02 07:15:17;;;;;;;17.23;10.97;;;13.60;99.90;;;;;;4980993;28;20207;-85
2021/09/02 07:17:43;;;;;;;20.37;12.13;;;13.70;99.90;;;;;;4979920;28;20552;-86
2021/09/02 07:20:09;;;;;;;28.67;13.13;;;13.70;99.90;;;;;;4995540;28;20176;-85
2021/09/02 07:22:35;;;;;;;31.30;14.57;;;13.80;99.90;;;;;;4996709;28;20183;-86
2021/09/02 07:25:00;;;;;;;22.17;12.80;;;14.10;99.90;;;;;;4996883;28;20199;-85
2021/09/02 07:27:26;;;;;;;26.47;12.43;;;14.50;99.90;;;;;;4981103;28;20205;-85
2021/09/02 07:29:51;;;;;;;22.17;11.47;;;14.90;99.90;;;;;;4981401;28;20191;-85
2021/09/02 07:32:17;;;;;;;21.83;13.03;;;15.20;99.90;;;;;;4981727;28;20184;-85
2021/09/02 07:34:43;;;;;;;22.20;12.80;;;15.60;99.90;;;;;;4999372;28;20199;-84
2021/09/02 07:37:09;;;;;;;24.57;13.00;;;15.90;99.90;;;;;;4984679;28;20613;-84
2021/09/02 07:39:37;;;;;;;21.27;13.57;;;16.10;99.90;;;;;;4984316;28;20662;-84
2021/09/02 07:42:03;;;;;;;26.10;13.63;;;16.40;99.90;;;;;;4983928;28;20176;-84
2021/09/02 07:44:29;;;;;;;20.57;14.10;;;16.50;99.90;;;;;;4982258;28;20711;-85
2021/09/02 07:46:54;;;;;;;23.83;13.93;;;16.70;99.90;;;;;;4982534;28;20171;-84
2021/09/02 07:49:20;;;;;;;24.00;13.87;;;16.80;99.90;;;;;;4983589;28;20896;-84
2021/09/02 07:51:46;;;;;;;22.33;13.17;;;16.90;99.90;;;;;;4984659;28;20176;-84
2021/09/02 07:54:12;;;;;;;22.90;12.97;;;17.10;99.90;;;;;;4985556;28;20187;-84
2021/09/02 07:56:37;;;;;;;23.20;12.40;;;17.20;99.90;;;;;;5001705;28;20215;-84
2021/09/02 07:59:04;;;;;;;23.10;12.40;;;17.40;99.90;;;;;;5000975;28;20218;-84
2021/09/02 08:01:29;;;;;;;28.50;14.40;;;17.50;99.90;;;;;;4985101;28;20187;-84
2021/09/02 08:03:55;;;;;;;22.63;12.63;;;17.60;99.90;;;;;;4984906;28;20190;-84
2021/09/02 08:06:20;;;;;;;21.33;13.40;;;17.50;99.90;;;;;;4985716;28;20186;-84
2021/09/02 08:08:46;;;;;;;22.93;13.97;;;17.30;99.90;;;;;;4985309;28;20719;-83
2021/09/02 08:11:12;;;;;;;32.20;16.10;;;17.20;99.90;;;;;;5032123;23;20226;-77
2021/09/02 08:13:37;;;;;;;30.50;13.90;;;17.20;99.90;;;;;;5031588;28;20171;-77
2021/09/02 08:16:03;;;;;;;29.83;13.30;;;17.00;99.90;;;;;;5031506;28;20215;-77
2021/09/02 08:18:28;;;;;;;20.03;13.20;;;17.00;99.90;;;;;;5015164;28;20657;-77
2021/09/02 08:20:54;;;;;;;24.90;12.90;;;16.80;99.90;;;;;;5031176;28;20202;-77
2021/09/02 08:23:20;;;;;;;21.37;12.67;;;16.80;99.90;;;;;;5015826;28;20535;-77
2021/09/02 08:25:45;;;;;;;23.73;13.07;;;16.70;99.90;;;;;;5015275;28;20186;-77
2021/09/02 08:28:11;;;;;;;25.60;13.53;;;16.60;99.90;;;;;;5048029;28;20367;-77
2021/09/02 08:30:36;;;;;;;24.23;12.57;;;16.50;99.90;;;;;;5031172;28;20205;-77
2021/09/02 08:33:02;;;;;;;24.10;12.83;;;16.60;99.90;;;;;;5015056;28;20232;-77
2021/09/02 08:35:30;;;;;;;22.23;11.70;;;16.70;99.90;;;;;;5017201;28;20214;-77
2021/09/02 08:38:01;;;;;;;23.80;13.00;;;16.70;99.90;;;;;;4995209;28;20168;-77
2021/09/02 08:40:28;;;;;;;24.03;13.27;;;16.80;99.90;;;;;;5012450;28;20230;-77
2021/09/02 08:42:54;;;;;;;23.87;13.50;;;16.70;99.90;;;;;;5032592;28;20209;-77
2021/09/02 08:45:23;;;;;;;21.83;13.73;;;16.80;99.90;;;;;;5014947;28;20177;-77
2021/09/02 08:47:49;;;;;;;27.87;13.47;;;16.80;99.90;;;;;;4999174;28;20193;-77
2021/09/02 08:50:16;;;;;;;20.77;13.03;;;16.80;99.90;;;;;;4998139;28;20290;-77
2021/09/02 08:52:42;;;;;;;22.97;12.97;;;16.80;99.90;;;;;;5015151;28;20179;-77
2021/09/02 08:55:08;;;;;;;38.27;13.50;;;16.80;99.90;;;;;;5014282;28;20257;-77
2021/09/02 08:57:34;;;;;;;22.10;14.40;;;16.70;99.90;;;;;;4998282;28;20270;-77
2021/09/02 08:59:59;;;;;;;27.73;14.20;;;16.80;99.90;;;;;;5014088;28;20291;-77
2021/09/02 09:02:27;;;;;;;22.97;13.60;;;16.80;99.90;;;;;;5014384;28;20181;-77
2021/09/02 09:05:06;;;;;;;23.63;13.63;;;16.90;99.90;;;;;;4998287;28;20249;-77
2021/09/02 09:07:45;;;;;;;21.47;13.47;;;16.90;99.90;;;;;;5014707;28;20175;-77
2021/09/02 09:10:21;;;;;;;22.43;14.30;;;16.90;99.90;;;;;;5017555;28;20238;-77
2021/09/02 09:12:50;;;;;;;23.20;13.87;;;17.00;99.90;;;;;;5018581;28;20216;-77
2021/09/02 09:15:37;;;;;;;18.70;13.17;;;17.00;99.90;;;;;;5018606;28;20221;-77
2021/09/02 09:18:42;;;;;;;21.63;13.43;;;17.00;99.90;;;;;;5034373;28;20187;-77
2021/09/02 09:21:08;;;;;;;21.73;13.63;;;17.10;99.90;;;;;;4979737;28;20211;-77
2021/09/02 09:24:07;;;;;;;17.37;12.10;;;17.10;99.90;;;;;;4998606;28;20179;-77
2021/09/02 09:26:33;;;;;;;24.03;13.63;;;17.00;99.90;;;;;;4983159;28;20233;-77
2021/09/02 09:29:00;;;;;;;23.20;13.53;;;16.90;99.90;;;;;;4982016;28;20172;-77
2021/09/02 09:31:32;;;;;;;24.77;13.87;;;16.90;99.90;;;;;;4998343;28;20231;-77
2021/09/02 09:33:59;;;;;;;23.07;13.77;;;17.00;99.90;;;;;;4998401;28;20194;-77
2021/09/02 09:36:27;;;;;;;21.20;13.03;;;17.10;99.90;;;;;;4982936;28;20242;-77
2021/09/02 09:39:09;;;;;;;21.43;13.17;;;17.10;99.90;;;;;;5015480;28;20174;-77
2021/09/02 09:41:45;;;;;;;22.33;14.13;;;17.10;99.90;;;;;;4999348;28;20257;-77
2021/09/02 09:44:24;;;;;;;29.43;13.70;;;17.20;99.90;;;;;;4998219;28;20700;-77
2021/09/02 09:47:05;;;;;;;28.03;13.60;;;17.30;99.90;;;;;;5014648;28;20211;-77
2021/09/02 09:49:49;;;;;;;20.23;12.73;;;17.40;99.90;;;;;;5015083;28;20561;-77
2021/09/02 09:52:24;;;;;;;18.00;11.60;;;17.40;99.90;;;;;;5031283;28;20179;-77
2021/09/02 09:54:49;;;;;;;21.43;12.40;;;17.50;99.90;;;;;;5026946;28;20190;-79
2021/09/02 09:57:15;;;;;;;19.03;11.80;;;17.60;99.90;;;;;;5015706;28;20178;-80
2021/09/02 09:59:41;;;;;;;22.37;12.57;;;17.70;99.90;;;;;;5018150;28;20202;-79
2021/09/02 10:02:07;;;;;;;19.47;11.73;;;17.70;99.90;;;;;;5017967;28;20543;-80
2021/09/02 10:04:33;;;;;;;20.17;12.93;;;17.80;99.90;;;;;;5002544;28;20178;-79
2021/09/02 10:06:59;;;;;;;20.70;12.50;;;17.90;99.90;;;;;;5001602;28;20593;-79
2021/09/02 10:09:25;;;;;;;21.33;12.10;;;17.90;99.90;;;;;;5002018;28;20179;-79
2021/09/02 10:11:50;;;;;;;19.53;12.33;;;18.10;99.90;;;;;;5019310;28;20159;-80
2021/09/02 10:14:16;;;;;;;31.20;12.97;;;18.40;99.90;;;;;;5002108;28;20182;-81
2021/09/02 10:16:41;;;;;;;19.40;12.60;;;18.60;99.90;;;;;;5001835;28;20206;-81
2021/09/02 10:19:07;;;;;;;22.83;12.50;;;18.70;99.90;;;;;;5001456;28;20198;-80
2021/09/02 10:21:32;;;;;;;19.73;11.70;;;18.70;99.90;;;;;;5000720;28;20257;-80
2021/09/02 10:24:27;;;;;;;22.93;11.93;;;18.70;99.90;;;;;;5002084;28;20179;-81
2021/09/02 10:26:53;;;;;;;18.40;11.80;;;18.70;99.90;;;;;;5034894;28;20171;-80
2021/09/02 10:29:36;;;;;;;19.97;10.80;;;18.70;99.90;;;;;;5017808;28;20225;-80
2021/09/02 10:32:23;;;;;;;22.53;11.40;;;18.70;99.90;;;;;;5002151;28;20185;-80
2021/09/02 10:35:12;;;;;;;20.23;12.07;;;18.60;99.90;;;;;;5035410;28;20174;-80
2021/09/02 10:37:37;;;;;;;20.37;12.17;;;18.80;99.90;;;;;;5021337;28;20175;-80
2021/09/02 10:40:36;;;;;;;20.47;11.70;;;18.80;99.90;;;;;;5036774;28;20202;-75
2021/09/02 10:43:02;;;;;;;18.53;11.00;;;18.60;99.90;;;;;;5026254;28;20191;-75
2021/09/02 10:45:28;;;;;;;18.47;11.47;;;18.50;99.90;;;;;;5002740;28;20186;-75
2021/09/02 10:48:06;;;;;;;20.20;13.60;;;18.50;99.90;;;;;;5036861;28;20194;-74
2021/09/02 10:50:39;;;;;;;19.53;12.20;;;18.70;99.90;;;;;;5015030;28;20293;-75
2021/09/02 10:53:12;;;;;;;17.47;11.40;;;18.90;99.90;;;;;;5008905;28;20210;-75
2021/09/02 10:55:40;;;;;;;17.97;10.73;;;19.10;99.90;;;;;;5023225;28;21375;-75
2021/09/02 10:58:07;;;;;;;17.90;11.33;;;19.20;99.90;;;;;;5019673;28;20175;-74
2021/09/02 11:00:40;;;;;;;17.10;11.40;;;19.30;99.90;;;;;;5011730;28;20191;-75
2021/09/02 11:03:19;;;;;;;19.40;11.43;;;19.40;99.90;;;;;;5020108;28;20642;-75
2021/09/02 11:05:55;;;;;;;18.17;11.53;;;19.60;99.90;;;;;;5037484;28;20186;-75
2021/09/02 11:08:34;;;;;;;19.93;11.57;;;19.80;99.90;;;;;;5029350;28;20206;-75
2021/09/02 11:11:16;;;;;;;18.60;11.27;;;19.90;99.90;;;;;;5031511;28;20217;-74
2021/09/02 11:13:46;;;;;;;17.17;10.83;;;19.90;99.90;;;;;;5031143;28;20198;-74
2021/09/02 11:16:13;;;;;;;17.43;10.70;;;20.10;99.90;;;;;;5030236;28;20187;-75
2021/09/02 11:18:45;;;;;;;20.33;10.80;;;20.20;99.90;;;;;;5031411;28;20179;-75
2021/09/02 11:21:15;;;;;;;19.33;11.33;;;20.30;99.90;;;;;;5028823;28;20204;-75
2021/09/02 11:23:41;;;;;;;16.67;10.20;;;20.30;99.90;;;;;;5018880;28;20172;-75
2021/09/02 11:26:07;;;;;;;17.43;10.60;;;20.30;99.90;;;;;;5031224;28;20229;-75
2021/09/02 11:28:47;;;;;;;26.43;12.27;;;20.30;99.90;;;;;;5039924;28;20187;-75
2021/09/02 11:31:13;;;;;;;15.40;9.70;;;20.30;99.90;;;;;;5027955;28;20207;-76
2021/09/02 11:33:48;;;;;;;17.37;10.60;;;20.40;99.90;;;;;;5014509;28;20203;-74
2021/09/02 11:36:14;;;;;;;15.33;9.93;;;20.50;99.90;;;;;;5033236;28;20612;-75
2021/09/02 11:38:42;;;;;;;13.53;9.47;;;20.40;99.90;;;;;;5015574;28;20202;-76
2021/09/02 11:41:22;;;;;;;15.90;8.80;;;20.50;99.90;;;;;;5032556;28;20627;-76
2021/09/02 11:43:48;;;;;;;16.67;9.33;;;20.50;99.90;;;;;;5017343;28;20258;-77
2021/09/02 11:46:14;;;;;;;16.87;9.40;;;20.60;99.90;;;;;;5033018;28;20218;-75
2021/09/02 11:48:56;;;;;;;13.93;9.87;;;20.60;99.90;;;;;;5032269;28;20183;-79
2021/09/02 11:51:30;;;;;;;17.40;9.63;;;20.70;99.90;;;;;;5028142;28;20701;-79
2021/09/02 11:54:23;;;;;;;20.17;9.97;;;20.70;99.90;;;;;;5028033;28;20174;-80
2021/09/02 11:56:49;;;;;;;13.73;8.77;;;20.70;99.90;;;;;;5030818;28;20693;-81
2021/09/02 11:59:14;;;;;;;16.93;9.23;;;20.90;99.90;;;;;;5016291;28;20236;-79
2021/09/02 12:01:46;;;;;;;15.13;10.43;;;20.80;99.90;;;;;;5033031;28;20178;-79
2021/09/02 12:04:23;;;;;;;14.93;9.67;;;20.80;99.90;;;;;;5018041;28;20918;-80
2021/09/02 12:06:50;;;;;;;14.93;9.87;;;20.70;99.90;;;;;;5019444;28;20210;-80
2021/09/02 12:09:17;;;;;;;14.90;9.63;;;20.80;99.90;;;;;;5051813;28;20206;-80
2021/09/02 12:11:43;;;;;;;14.80;8.47;;;21.00;99.90;;;;;;5018702;28;20182;-78
2021/09/02 12:14:20;;;;;;;13.30;8.53;;;21.00;99.90;;;;;;5016642;28;20244;-79
2021/09/02 12:16:59;;;;;;;15.07;8.23;;;21.10;99.90;;;;;;5021667;28;20249;-78
2021/09/02 12:19:25;;;;;;;13.60;7.80;;;21.10;99.90;;;;;;4997017;28;20182;-79
2021/09/02 12:21:50;;;;;;;12.67;7.70;;;21.20;99.90;;;;;;5013861;28;20211;-79
2021/09/02 12:24:21;;;;;;;13.33;7.33;;;21.40;99.90;;;;;;4998068;28;20175;-77
2021/09/02 12:27:00;;;;;;;12.90;7.80;;;21.50;99.90;;;;;;4984434;28;20594;-77
2021/09/02 12:29:45;;;;;;;13.53;7.40;;;21.50;99.90;;;;;;5031419;28;20209;-77
2021/09/02 12:32:21;;;;;;;11.23;7.00;;;21.30;99.90;;;;;;5005983;28;20290;-77
2021/09/02 12:34:51;;;;;;;15.03;7.33;;;21.10;99.90;;;;;;5000767;28;20191;-77
2021/09/02 12:38:06;;;;;;;11.13;6.40;;;21.10;99.90;;;;;;4958024;29;20190;-77
2021/09/02 12:41:19;;;;;;;12.00;6.67;;;21.30;99.90;;;;;;4946770;28;20209;-77
2021/09/02 12:44:43;;;;;;;12.10;7.40;;;21.60;99.90;;;;;;4978360;28;20196;-77